PADL/DLG METAR and TAF weather

Enter ICAO airport designator
Station Type Date Time Source
PADL METAR 2022/01/18 07:14 UTC NOAA

PADL 180714Z 02013KT 10SM OVC030 M08/M09 A2994 RMK AO2 SNE02 P0000


Station Type Date Time Source
PADL Decoded METAR 2022/01/18 07:14 UTC NOAA

Dillingham, Dillingham Airport, AK, United States (PADL) 59-03N 158-31W 29M
Jan 18, 2022 - 02:14 AM EST / 2022.01.18 0714 UTC
Wind: from the NNE (020 degrees) at 15 MPH (13 KT):0
Visibility: 10 mile(s):0
Sky conditions: overcast
Precipitation last hour: A trace
Temperature: 17 F (-8 C)
Windchill: 3 F (-16 C):1
Dew Point: 15 F (-9 C)
Relative Humidity: 92%
Pressure (altimeter): 29.94 in. Hg (1013 hPa)
ob: PADL 180714Z 02013KT 10SM OVC030 M08/M09 A2994 RMK AO2 SNE02 P0000
cycle: 7

Station Type Date Time Source
PADL TAF 2022/01/18 06:27 UTC NOAA

TAF PADL 180525Z 1806/1906 02012KT P6SM -SN OVC025
TEMPO 1806/1809 6SM -SN BR OVC015
FM180900 35013KT 6SM -SN BR OVC015
FM181700 36011KT 4SM -SN BKN015 OVC030

Example: see airport list